sensor_id;sensor_type;location;lat;lon;timestamp;temperature;humidity
18024;DHT22;9137;50.960;3.118;2023-06-14T00:01:51;20.40;80.60
18024;DHT22;9137;50.960;3.118;2023-06-14T00:04:18;20.30;80.60
18024;DHT22;9137;50.960;3.118;2023-06-14T00:06:46;20.20;81.00
18024;DHT22;9137;50.960;3.118;2023-06-14T00:09:15;20.20;83.40
18024;DHT22;9137;50.960;3.118;2023-06-14T00:11:43;20.10;84.50
18024;DHT22;9137;50.960;3.118;2023-06-14T00:14:10;20.10;84.60
18024;DHT22;9137;50.960;3.118;2023-06-14T00:16:37;20.00;84.60
18024;DHT22;9137;50.960;3.118;2023-06-14T00:19:04;20.00;84.80
18024;DHT22;9137;50.960;3.118;2023-06-14T00:21:32;19.90;84.60
18024;DHT22;9137;50.960;3.118;2023-06-14T00:23:59;19.80;85.50
18024;DHT22;9137;50.960;3.118;2023-06-14T00:26:27;19.70;86.90
18024;DHT22;9137;50.960;3.118;2023-06-14T00:28:54;19.70;87.60
18024;DHT22;9137;50.960;3.118;2023-06-14T00:31:22;19.70;87.50
18024;DHT22;9137;50.960;3.118;2023-06-14T00:33:49;19.70;87.70
18024;DHT22;9137;50.960;3.118;2023-06-14T00:36:16;19.60;87.40
18024;DHT22;9137;50.960;3.118;2023-06-14T00:38:43;19.60;88.60
18024;DHT22;9137;50.960;3.118;2023-06-14T00:41:10;19.50;89.30
18024;DHT22;9137;50.960;3.118;2023-06-14T00:43:38;19.50;90.20
18024;DHT22;9137;50.960;3.118;2023-06-14T00:46:05;19.50;90.40
18024;DHT22;9137;50.960;3.118;2023-06-14T00:48:33;19.50;90.50
18024;DHT22;9137;50.960;3.118;2023-06-14T00:51:00;19.40;90.50
18024;DHT22;9137;50.960;3.118;2023-06-14T00:53:30;19.40;90.50
18024;DHT22;9137;50.960;3.118;2023-06-14T00:56:00;19.40;90.70
18024;DHT22;9137;50.960;3.118;2023-06-14T00:58:27;19.40;90.80
18024;DHT22;9137;50.960;3.118;2023-06-14T01:00:56;19.40;91.20
18024;DHT22;9137;50.960;3.118;2023-06-14T01:03:23;19.30;91.30
18024;DHT22;9137;50.960;3.118;2023-06-14T01:05:55;19.20;91.60
18024;DHT22;9137;50.960;3.118;2023-06-14T01:08:28;19.20;91.70
18024;DHT22;9137;50.960;3.118;2023-06-14T01:11:02;19.20;91.60
18024;DHT22;9137;50.960;3.118;2023-06-14T01:13:34;19.10;91.80
18024;DHT22;9137;50.960;3.118;2023-06-14T01:16:03;19.10;92.30
18024;DHT22;9137;50.960;3.118;2023-06-14T01:18:31;19.10;92.40
18024;DHT22;9137;50.960;3.118;2023-06-14T01:20:59;19.10;92.50
18024;DHT22;9137;50.960;3.118;2023-06-14T01:23:32;19.10;92.70
18024;DHT22;9137;50.960;3.118;2023-06-14T01:26:00;19.00;92.60
18024;DHT22;9137;50.960;3.118;2023-06-14T01:28:29;19.00;93.00
18024;DHT22;9137;50.960;3.118;2023-06-14T01:31:01;19.00;92.70
18024;DHT22;9137;50.960;3.118;2023-06-14T01:33:31;18.90;93.00
18024;DHT22;9137;50.960;3.118;2023-06-14T01:35:59;18.90;93.20
18024;DHT22;9137;50.960;3.118;2023-06-14T01:38:27;18.90;93.30
18024;DHT22;9137;50.960;3.118;2023-06-14T01:40:58;18.90;93.50
18024;DHT22;9137;50.960;3.118;2023-06-14T01:43:26;18.80;93.60
18024;DHT22;9137;50.960;3.118;2023-06-14T01:45:54;18.80;93.60
18024;DHT22;9137;50.960;3.118;2023-06-14T01:48:23;18.80;93.70
18024;DHT22;9137;50.960;3.118;2023-06-14T01:50:50;18.70;93.90
18024;DHT22;9137;50.960;3.118;2023-06-14T01:53:17;18.70;94.10
18024;DHT22;9137;50.960;3.118;2023-06-14T01:55:44;18.60;94.20
18024;DHT22;9137;50.960;3.118;2023-06-14T01:58:15;18.60;94.40
18024;DHT22;9137;50.960;3.118;2023-06-14T02:00:43;18.60;94.50
18024;DHT22;9137;50.960;3.118;2023-06-14T02:03:10;18.60;94.50
18024;DHT22;9137;50.960;3.118;2023-06-14T02:05:38;18.50;94.40
18024;DHT22;9137;50.960;3.118;2023-06-14T02:08:05;18.40;94.90
18024;DHT22;9137;50.960;3.118;2023-06-14T02:10:33;18.40;94.90
18024;DHT22;9137;50.960;3.118;2023-06-14T02:13:00;18.40;94.90
18024;DHT22;9137;50.960;3.118;2023-06-14T02:15:28;18.40;94.90
18024;DHT22;9137;50.960;3.118;2023-06-14T02:17:59;18.30;94.80
18024;DHT22;9137;50.960;3.118;2023-06-14T02:20:27;18.40;94.90
18024;DHT22;9137;50.960;3.118;2023-06-14T02:22:54;18.30;95.10
18024;DHT22;9137;50.960;3.118;2023-06-14T02:25:21;18.30;95.10
18024;DHT22;9137;50.960;3.118;2023-06-14T02:27:48;18.30;95.10
18024;DHT22;9137;50.960;3.118;2023-06-14T02:30:15;18.30;95.40
18024;DHT22;9137;50.960;3.118;2023-06-14T02:32:44;18.20;95.50
18024;DHT22;9137;50.960;3.118;2023-06-14T02:35:11;18.20;95.30
18024;DHT22;9137;50.960;3.118;2023-06-14T02:37:38;18.10;94.90
18024;DHT22;9137;50.960;3.118;2023-06-14T02:40:06;18.10;95.40
18024;DHT22;9137;50.960;3.118;2023-06-14T02:42:34;18.00;95.90
18024;DHT22;9137;50.960;3.118;2023-06-14T02:45:01;18.00;95.60
18024;DHT22;9137;50.960;3.118;2023-06-14T02:47:29;18.00;95.60
18024;DHT22;9137;50.960;3.118;2023-06-14T02:49:58;18.00;95.70
18024;DHT22;9137;50.960;3.118;2023-06-14T02:52:24;18.00;95.60
18024;DHT22;9137;50.960;3.118;2023-06-14T02:54:51;18.00;95.50
18024;DHT22;9137;50.960;3.118;2023-06-14T02:57:19;17.90;95.30
18024;DHT22;9137;50.960;3.118;2023-06-14T02:59:46;17.90;95.00
18024;DHT22;9137;50.960;3.118;2023-06-14T03:02:13;17.80;95.40
18024;DHT22;9137;50.960;3.118;2023-06-14T03:04:40;17.80;95.40
18024;DHT22;9137;50.960;3.118;2023-06-14T03:07:11;17.80;95.10
18024;DHT22;9137;50.960;3.118;2023-06-14T03:09:39;17.70;95.00
18024;DHT22;9137;50.960;3.118;2023-06-14T03:12:07;17.70;95.10
18024;DHT22;9137;50.960;3.118;2023-06-14T03:14:35;17.70;94.80
18024;DHT22;9137;50.960;3.118;2023-06-14T03:17:02;17.60;94.70
18024;DHT22;9137;50.960;3.118;2023-06-14T03:19:30;17.60;94.70
18024;DHT22;9137;50.960;3.118;2023-06-14T03:21:57;17.60;95.20
18024;DHT22;9137;50.960;3.118;2023-06-14T03:24:25;17.60;95.50
18024;DHT22;9137;50.960;3.118;2023-06-14T03:26:54;17.60;95.50
18024;DHT22;9137;50.960;3.118;2023-06-14T03:29:22;17.60;95.50
18024;DHT22;9137;50.960;3.118;2023-06-14T03:31:59;17.60;95.60
18024;DHT22;9137;50.960;3.118;2023-06-14T03:34:27;17.50;95.60
18024;DHT22;9137;50.960;3.118;2023-06-14T03:36:54;17.50;95.50
18024;DHT22;9137;50.960;3.118;2023-06-14T03:39:21;17.40;95.10
18024;DHT22;9137;50.960;3.118;2023-06-14T03:41:49;17.40;95.50
18024;DHT22;9137;50.960;3.118;2023-06-14T03:44:17;17.30;94.80
18024;DHT22;9137;50.960;3.118;2023-06-14T03:46:44;17.30;95.10
18024;DHT22;9137;50.960;3.118;2023-06-14T03:49:12;17.30;95.20
18024;DHT22;9137;50.960;3.118;2023-06-14T03:51:39;17.30;95.60
18024;DHT22;9137;50.960;3.118;2023-06-14T03:54:06;17.30;95.20
18024;DHT22;9137;50.960;3.118;2023-06-14T03:56:33;17.30;95.40
18024;DHT22;9137;50.960;3.118;2023-06-14T03:59:02;17.30;94.90
18024;DHT22;9137;50.960;3.118;2023-06-14T04:01:29;17.30;95.20
18024;DHT22;9137;50.960;3.118;2023-06-14T04:03:57;17.30;94.70
18024;DHT22;9137;50.960;3.118;2023-06-14T04:06:24;17.30;94.40
18024;DHT22;9137;50.960;3.118;2023-06-14T04:08:58;17.30;94.90
18024;DHT22;9137;50.960;3.118;2023-06-14T04:11:28;17.40;94.60
18024;DHT22;9137;50.960;3.118;2023-06-14T04:13:55;17.40;94.80
18024;DHT22;9137;50.960;3.118;2023-06-14T04:16:23;17.30;94.80
18024;DHT22;9137;50.960;3.118;2023-06-14T04:18:50;17.40;95.00
18024;DHT22;9137;50.960;3.118;2023-06-14T04:21:18;17.40;94.90
18024;DHT22;9137;50.960;3.118;2023-06-14T04:23:46;17.40;95.40
18024;DHT22;9137;50.960;3.118;2023-06-14T04:26:13;17.40;95.20
18024;DHT22;9137;50.960;3.118;2023-06-14T04:28:40;17.40;95.10
18024;DHT22;9137;50.960;3.118;2023-06-14T04:31:07;17.40;94.60
18024;DHT22;9137;50.960;3.118;2023-06-14T04:33:36;17.40;95.20
18024;DHT22;9137;50.960;3.118;2023-06-14T04:36:09;17.40;94.80
18024;DHT22;9137;50.960;3.118;2023-06-14T04:38:37;17.50;94.40
18024;DHT22;9137;50.960;3.118;2023-06-14T04:41:04;17.50;93.60
18024;DHT22;9137;50.960;3.118;2023-06-14T04:43:31;17.50;94.20
18024;DHT22;9137;50.960;3.118;2023-06-14T04:46:03;17.50;94.10
18024;DHT22;9137;50.960;3.118;2023-06-14T04:48:31;17.50;93.90
18024;DHT22;9137;50.960;3.118;2023-06-14T04:50:59;17.60;94.10
18024;DHT22;9137;50.960;3.118;2023-06-14T04:53:26;17.60;94.10
18024;DHT22;9137;50.960;3.118;2023-06-14T04:55:54;17.60;93.80
18024;DHT22;9137;50.960;3.118;2023-06-14T04:58:21;17.60;94.20
18024;DHT22;9137;50.960;3.118;2023-06-14T05:00:48;17.70;93.60
18024;DHT22;9137;50.960;3.118;2023-06-14T05:03:15;17.80;93.70
18024;DHT22;9137;50.960;3.118;2023-06-14T05:05:44;17.80;93.30
18024;DHT22;9137;50.960;3.118;2023-06-14T05:08:12;17.80;91.60
18024;DHT22;9137;50.960;3.118;2023-06-14T05:10:39;17.90;92.50
18024;DHT22;9137;50.960;3.118;2023-06-14T05:13:06;17.90;91.60
18024;DHT22;9137;50.960;3.118;2023-06-14T05:15:33;18.00;90.90
18024;DHT22;9137;50.960;3.118;2023-06-14T05:18:00;18.10;91.30
18024;DHT22;9137;50.960;3.118;2023-06-14T05:20:28;18.10;91.20
18024;DHT22;9137;50.960;3.118;2023-06-14T05:22:55;18.20;90.20
18024;DHT22;9137;50.960;3.118;2023-06-14T05:25:24;18.30;89.30
18024;DHT22;9137;50.960;3.118;2023-06-14T05:27:53;18.40;88.20
18024;DHT22;9137;50.960;3.118;2023-06-14T05:30:20;18.40;88.00
18024;DHT22;9137;50.960;3.118;2023-06-14T05:32:47;18.50;87.60
18024;DHT22;9137;50.960;3.118;2023-06-14T05:35:15;18.60;86.00
18024;DHT22;9137;50.960;3.118;2023-06-14T05:37:42;18.70;86.70
18024;DHT22;9137;50.960;3.118;2023-06-14T05:40:10;18.70;85.50
18024;DHT22;9137;50.960;3.118;2023-06-14T05:42:39;18.80;85.60
18024;DHT22;9137;50.960;3.118;2023-06-14T05:45:06;18.90;85.00
18024;DHT22;9137;50.960;3.118;2023-06-14T05:47:34;18.90;85.70
18024;DHT22;9137;50.960;3.118;2023-06-14T05:50:01;19.00;83.80
18024;DHT22;9137;50.960;3.118;2023-06-14T05:52:28;19.20;84.70
18024;DHT22;9137;50.960;3.118;2023-06-14T05:54:55;19.20;84.90
18024;DHT22;9137;50.960;3.118;2023-06-14T05:57:22;19.30;83.20
18024;DHT22;9137;50.960;3.118;2023-06-14T05:59:50;19.40;84.20
18024;DHT22;9137;50.960;3.118;2023-06-14T06:02:17;19.40;82.10
18024;DHT22;9137;50.960;3.118;2023-06-14T06:04:44;19.40;79.00
18024;DHT22;9137;50.960;3.118;2023-06-14T06:07:11;19.60;78.70
18024;DHT22;9137;50.960;3.118;2023-06-14T06:13:00;19.70;79.80
18024;DHT22;9137;50.960;3.118;2023-06-14T06:15:28;19.90;74.80
18024;DHT22;9137;50.960;3.118;2023-06-14T06:17:56;20.00;77.80
18024;DHT22;9137;50.960;3.118;2023-06-14T06:20:23;20.10;76.90
18024;DHT22;9137;50.960;3.118;2023-06-14T06:22:53;20.20;73.00
18024;DHT22;9137;50.960;3.118;2023-06-14T06:25:20;20.30;71.10
18024;DHT22;9137;50.960;3.118;2023-06-14T06:27:51;20.30;69.70
18024;DHT22;9137;50.960;3.118;2023-06-14T06:30:18;20.40;69.60
18024;DHT22;9137;50.960;3.118;2023-06-14T06:32:47;20.50;69.80
18024;DHT22;9137;50.960;3.118;2023-06-14T06:35:14;20.50;68.60
18024;DHT22;9137;50.960;3.118;2023-06-14T06:37:42;20.70;67.80
18024;DHT22;9137;50.960;3.118;2023-06-14T06:40:10;20.80;67.40
18024;DHT22;9137;50.960;3.118;2023-06-14T06:42:38;20.80;67.10
18024;DHT22;9137;50.960;3.118;2023-06-14T06:45:05;20.90;65.40
18024;DHT22;9137;50.960;3.118;2023-06-14T06:47:32;21.00;65.90
18024;DHT22;9137;50.960;3.118;2023-06-14T06:50:01;21.00;64.40
18024;DHT22;9137;50.960;3.118;2023-06-14T06:52:28;21.10;64.70
18024;DHT22;9137;50.960;3.118;2023-06-14T06:54:55;21.20;64.50
18024;DHT22;9137;50.960;3.118;2023-06-14T06:57:22;21.30;60.50
18024;DHT22;9137;50.960;3.118;2023-06-14T06:59:49;21.40;62.50
18024;DHT22;9137;50.960;3.118;2023-06-14T07:02:16;21.40;61.90
18024;DHT22;9137;50.960;3.118;2023-06-14T07:04:43;21.60;61.40
18024;DHT22;9137;50.960;3.118;2023-06-14T07:07:12;21.70;60.90
18024;DHT22;9137;50.960;3.118;2023-06-14T07:09:39;21.70;61.30
18024;DHT22;9137;50.960;3.118;2023-06-14T07:12:07;21.70;60.40
18024;DHT22;9137;50.960;3.118;2023-06-14T07:14:34;21.90;59.10
18024;DHT22;9137;50.960;3.118;2023-06-14T07:17:01;21.90;60.60
18024;DHT22;9137;50.960;3.118;2023-06-14T07:19:28;21.90;59.70
18024;DHT22;9137;50.960;3.118;2023-06-14T07:21:56;22.00;59.80
18024;DHT22;9137;50.960;3.118;2023-06-14T07:24:25;22.10;58.80
18024;DHT22;9137;50.960;3.118;2023-06-14T07:26:53;22.20;59.10
18024;DHT22;9137;50.960;3.118;2023-06-14T07:29:21;22.30;58.40
18024;DHT22;9137;50.960;3.118;2023-06-14T07:31:48;22.30;58.70
18024;DHT22;9137;50.960;3.118;2023-06-14T07:34:15;22.50;57.60
18024;DHT22;9137;50.960;3.118;2023-06-14T07:36:43;22.50;56.90
18024;DHT22;9137;50.960;3.118;2023-06-14T07:39:10;22.70;57.60
18024;DHT22;9137;50.960;3.118;2023-06-14T07:41:38;22.70;57.40
18024;DHT22;9137;50.960;3.118;2023-06-14T07:44:05;22.80;55.90
18024;DHT22;9137;50.960;3.118;2023-06-14T07:46:32;22.90;55.90
18024;DHT22;9137;50.960;3.118;2023-06-14T07:49:00;23.00;55.40
18024;DHT22;9137;50.960;3.118;2023-06-14T07:51:27;23.10;55.20
18024;DHT22;9137;50.960;3.118;2023-06-14T07:53:54;23.20;54.00
18024;DHT22;9137;50.960;3.118;2023-06-14T07:56:22;23.30;54.10
18024;DHT22;9137;50.960;3.118;2023-06-14T07:58:50;23.40;54.30
18024;DHT22;9137;50.960;3.118;2023-06-14T08:01:17;23.50;56.20
18024;DHT22;9137;50.960;3.118;2023-06-14T08:03:45;23.60;55.30
18024;DHT22;9137;50.960;3.118;2023-06-14T08:06:12;23.60;53.30
18024;DHT22;9137;50.960;3.118;2023-06-14T08:08:39;23.80;53.40
18024;DHT22;9137;50.960;3.118;2023-06-14T08:11:06;24.00;53.00
18024;DHT22;9137;50.960;3.118;2023-06-14T08:13:33;24.20;51.90
18024;DHT22;9137;50.960;3.118;2023-06-14T08:16:02;24.50;53.70
18024;DHT22;9137;50.960;3.118;2023-06-14T08:18:30;24.70;50.20
18024;DHT22;9137;50.960;3.118;2023-06-14T08:20:57;25.00;51.10
18024;DHT22;9137;50.960;3.118;2023-06-14T08:23:24;25.30;49.40
18024;DHT22;9137;50.960;3.118;2023-06-14T08:25:51;25.50;50.20
18024;DHT22;9137;50.960;3.118;2023-06-14T08:28:18;25.80;49.10
18024;DHT22;9137;50.960;3.118;2023-06-14T08:30:46;26.10;47.90
18024;DHT22;9137;50.960;3.118;2023-06-14T08:33:14;26.20;48.30
18024;DHT22;9137;50.960;3.118;2023-06-14T08:35:41;26.60;47.80
18024;DHT22;9137;50.960;3.118;2023-06-14T08:38:10;26.90;48.20
18024;DHT22;9137;50.960;3.118;2023-06-14T08:40:37;27.20;47.90
18024;DHT22;9137;50.960;3.118;2023-06-14T08:43:05;27.70;48.60
18024;DHT22;9137;50.960;3.118;2023-06-14T08:45:32;28.10;43.90
18024;DHT22;9137;50.960;3.118;2023-06-14T08:48:00;28.20;43.70
18024;DHT22;9137;50.960;3.118;2023-06-14T08:50:30;28.40;43.40
18024;DHT22;9137;50.960;3.118;2023-06-14T08:53:01;28.60;42.30
18024;DHT22;9137;50.960;3.118;2023-06-14T08:55:29;28.60;39.40
18024;DHT22;9137;50.960;3.118;2023-06-14T08:57:57;28.70;43.10
18024;DHT22;9137;50.960;3.118;2023-06-14T09:00:26;28.90;38.30
18024;DHT22;9137;50.960;3.118;2023-06-14T09:02:53;28.90;38.30
18024;DHT22;9137;50.960;3.118;2023-06-14T09:05:23;28.90;36.80
18024;DHT22;9137;50.960;3.118;2023-06-14T09:07:52;29.00;36.40
18024;DHT22;9137;50.960;3.118;2023-06-14T09:10:21;29.00;34.90
18024;DHT22;9137;50.960;3.118;2023-06-14T09:12:48;29.00;36.70
18024;DHT22;9137;50.960;3.118;2023-06-14T09:15:15;29.30;36.90
18024;DHT22;9137;50.960;3.118;2023-06-14T09:17:42;29.60;35.20
18024;DHT22;9137;50.960;3.118;2023-06-14T09:20:10;29.80;36.00
18024;DHT22;9137;50.960;3.118;2023-06-14T09:22:39;29.80;33.60
18024;DHT22;9137;50.960;3.118;2023-06-14T09:25:09;29.70;34.30
18024;DHT22;9137;50.960;3.118;2023-06-14T09:27:37;29.90;35.80
18024;DHT22;9137;50.960;3.118;2023-06-14T09:30:08;30.00;32.10
18024;DHT22;9137;50.960;3.118;2023-06-14T09:32:37;29.90;32.20
18024;DHT22;9137;50.960;3.118;2023-06-14T09:35:05;29.90;32.20
18024;DHT22;9137;50.960;3.118;2023-06-14T09:37:33;29.80;32.00
18024;DHT22;9137;50.960;3.118;2023-06-14T09:40:01;30.00;32.30
18024;DHT22;9137;50.960;3.118;2023-06-14T09:42:31;30.00;32.80
18024;DHT22;9137;50.960;3.118;2023-06-14T09:45:02;29.90;30.80
18024;DHT22;9137;50.960;3.118;2023-06-14T09:47:30;29.80;32.00
18024;DHT22;9137;50.960;3.118;2023-06-14T09:49:57;30.00;32.50
18024;DHT22;9137;50.960;3.118;2023-06-14T09:52:27;30.10;30.00
18024;DHT22;9137;50.960;3.118;2023-06-14T09:55:10;30.00;30.70
18024;DHT22;9137;50.960;3.118;2023-06-14T09:57:41;30.00;31.70
18024;DHT22;9137;50.960;3.118;2023-06-14T10:00:11;30.20;32.60
18024;DHT22;9137;50.960;3.118;2023-06-14T10:02:41;30.40;30.50
18024;DHT22;9137;50.960;3.118;2023-06-14T10:05:15;30.70;30.60
18024;DHT22;9137;50.960;3.118;2023-06-14T10:07:53;30.90;29.00
18024;DHT22;9137;50.960;3.118;2023-06-14T10:10:20;31.10;31.00
18024;DHT22;9137;50.960;3.118;2023-06-14T10:12:49;31.30;30.00
18024;DHT22;9137;50.960;3.118;2023-06-14T10:15:20;31.50;31.20
18024;DHT22;9137;50.960;3.118;2023-06-14T10:17:53;31.40;28.50
18024;DHT22;9137;50.960;3.118;2023-06-14T10:20:30;31.60;34.10
18024;DHT22;9137;50.960;3.118;2023-06-14T10:23:05;31.90;27.90
18024;DHT22;9137;50.960;3.118;2023-06-14T10:25:35;32.10;28.10
18024;DHT22;9137;50.960;3.118;2023-06-14T10:28:20;31.80;27.70
18024;DHT22;9137;50.960;3.118;2023-06-14T10:31:05;31.70;27.60
18024;DHT22;9137;50.960;3.118;2023-06-14T10:33:32;31.70;27.00
18024;DHT22;9137;50.960;3.118;2023-06-14T10:36:11;31.70;26.40
18024;DHT22;9137;50.960;3.118;2023-06-14T10:38:58;31.90;29.40
18024;DHT22;9137;50.960;3.118;2023-06-14T10:41:27;31.80;27.60
18024;DHT22;9137;50.960;3.118;2023-06-14T10:46:58;31.50;27.80
18024;DHT22;9137;50.960;3.118;2023-06-14T10:49:37;31.40;28.70
18024;DHT22;9137;50.960;3.118;2023-06-14T10:52:11;31.60;27.20
18024;DHT22;9137;50.960;3.118;2023-06-14T10:55:06;31.60;27.80
18024;DHT22;9137;50.960;3.118;2023-06-14T10:57:35;31.80;28.10
18024;DHT22;9137;50.960;3.118;2023-06-14T11:00:05;31.90;27.90
18024;DHT22;9137;50.960;3.118;2023-06-14T11:05:50;31.70;28.60
18024;DHT22;9137;50.960;3.118;2023-06-14T11:11:17;32.00;28.30
18024;DHT22;9137;50.960;3.118;2023-06-14T11:13:45;32.10;27.20
18024;DHT22;9137;50.960;3.118;2023-06-14T11:16:13;32.30;27.00
18024;DHT22;9137;50.960;3.118;2023-06-14T11:18:42;32.40;27.60
18024;DHT22;9137;50.960;3.118;2023-06-14T11:21:10;32.40;26.20
18024;DHT22;9137;50.960;3.118;2023-06-14T11:23:37;32.40;26.00
18024;DHT22;9137;50.960;3.118;2023-06-14T11:26:05;32.50;26.40
18024;DHT22;9137;50.960;3.118;2023-06-14T11:28:38;32.50;26.90
18024;DHT22;9137;50.960;3.118;2023-06-14T11:31:06;32.60;27.40
18024;DHT22;9137;50.960;3.118;2023-06-14T11:33:34;32.60;26.80
18024;DHT22;9137;50.960;3.118;2023-06-14T11:36:04;32.80;25.80
18024;DHT22;9137;50.960;3.118;2023-06-14T11:38:38;33.00;28.20
18024;DHT22;9137;50.960;3.118;2023-06-14T11:41:05;33.00;26.00
18024;DHT22;9137;50.960;3.118;2023-06-14T11:43:32;33.00;25.60
18024;DHT22;9137;50.960;3.118;2023-06-14T11:46:00;33.10;26.00
18024;DHT22;9137;50.960;3.118;2023-06-14T11:48:36;33.40;26.90
18024;DHT22;9137;50.960;3.118;2023-06-14T11:51:04;33.40;25.20
18024;DHT22;9137;50.960;3.118;2023-06-14T11:53:31;33.10;25.50
18024;DHT22;9137;50.960;3.118;2023-06-14T11:55:59;33.20;25.70
18024;DHT22;9137;50.960;3.118;2023-06-14T11:58:26;33.40;26.70
18024;DHT22;9137;50.960;3.118;2023-06-14T12:00:54;33.70;24.70
18024;DHT22;9137;50.960;3.118;2023-06-14T12:03:23;33.40;24.70
18024;DHT22;9137;50.960;3.118;2023-06-14T12:06:01;33.40;24.40
18024;DHT22;9137;50.960;3.118;2023-06-14T12:08:34;33.60;26.60
18024;DHT22;9137;50.960;3.118;2023-06-14T12:11:04;33.80;24.20
18024;DHT22;9137;50.960;3.118;2023-06-14T12:13:31;33.80;24.70
18024;DHT22;9137;50.960;3.118;2023-06-14T12:15:58;33.80;24.60
18024;DHT22;9137;50.960;3.118;2023-06-14T12:18:33;33.70;24.20
18024;DHT22;9137;50.960;3.118;2023-06-14T12:21:00;33.70;25.20
18024;DHT22;9137;50.960;3.118;2023-06-14T12:23:43;33.70;24.20
18024;DHT22;9137;50.960;3.118;2023-06-14T12:26:13;33.40;25.20
18024;DHT22;9137;50.960;3.118;2023-06-14T12:28:41;33.50;24.50
18024;DHT22;9137;50.960;3.118;2023-06-14T12:31:08;33.40;25.10
18024;DHT22;9137;50.960;3.118;2023-06-14T12:33:36;33.30;26.00
18024;DHT22;9137;50.960;3.118;2023-06-14T12:36:04;33.30;24.70
18024;DHT22;9137;50.960;3.118;2023-06-14T12:38:32;33.30;24.40
18024;DHT22;9137;50.960;3.118;2023-06-14T12:41:00;33.40;24.70
18024;DHT22;9137;50.960;3.118;2023-06-14T12:43:27;33.40;23.70
18024;DHT22;9137;50.960;3.118;2023-06-14T12:45:54;33.50;24.30
18024;DHT22;9137;50.960;3.118;2023-06-14T12:48:22;33.50;24.70
18024;DHT22;9137;50.960;3.118;2023-06-14T12:50:49;33.70;24.70
18024;DHT22;9137;50.960;3.118;2023-06-14T12:53:16;34.10;26.00
18024;DHT22;9137;50.960;3.118;2023-06-14T12:55:43;34.30;24.40
18024;DHT22;9137;50.960;3.118;2023-06-14T12:58:12;34.40;23.90
18024;DHT22;9137;50.960;3.118;2023-06-14T13:00:39;34.50;23.40
18024;DHT22;9137;50.960;3.118;2023-06-14T13:03:07;34.60;22.90
18024;DHT22;9137;50.960;3.118;2023-06-14T13:05:34;34.40;23.40
18024;DHT22;9137;50.960;3.118;2023-06-14T13:08:01;33.90;22.80
18024;DHT22;9137;50.960;3.118;2023-06-14T13:10:28;33.80;24.10
18024;DHT22;9137;50.960;3.118;2023-06-14T13:12:55;33.70;23.80
18024;DHT22;9137;50.960;3.118;2023-06-14T13:15:25;34.00;24.80
18024;DHT22;9137;50.960;3.118;2023-06-14T13:17:52;34.00;24.00
18024;DHT22;9137;50.960;3.118;2023-06-14T13:20:19;34.00;25.00
18024;DHT22;9137;50.960;3.118;2023-06-14T13:22:46;33.70;23.50
18024;DHT22;9137;50.960;3.118;2023-06-14T13:25:13;33.50;24.10
18024;DHT22;9137;50.960;3.118;2023-06-14T13:27:40;33.60;24.00
18024;DHT22;9137;50.960;3.118;2023-06-14T13:30:08;33.50;23.60
18024;DHT22;9137;50.960;3.118;2023-06-14T13:32:37;33.70;24.50
18024;DHT22;9137;50.960;3.118;2023-06-14T13:35:08;33.70;24.40
18024;DHT22;9137;50.960;3.118;2023-06-14T13:37:35;33.70;23.80
18024;DHT22;9137;50.960;3.118;2023-06-14T13:40:03;33.70;23.90
18024;DHT22;9137;50.960;3.118;2023-06-14T13:42:30;33.40;23.20
18024;DHT22;9137;50.960;3.118;2023-06-14T13:44:58;33.20;24.70
18024;DHT22;9137;50.960;3.118;2023-06-14T13:47:25;33.40;24.70
18024;DHT22;9137;50.960;3.118;2023-06-14T13:49:53;33.30;23.70
18024;DHT22;9137;50.960;3.118;2023-06-14T13:52:21;33.20;24.90
18024;DHT22;9137;50.960;3.118;2023-06-14T13:54:48;33.30;23.70
18024;DHT22;9137;50.960;3.118;2023-06-14T13:57:16;33.40;25.20
18024;DHT22;9137;50.960;3.118;2023-06-14T13:59:43;33.70;24.20
18024;DHT22;9137;50.960;3.118;2023-06-14T14:02:11;33.70;24.50
18024;DHT22;9137;50.960;3.118;2023-06-14T14:04:39;33.70;25.10
18024;DHT22;9137;50.960;3.118;2023-06-14T14:07:08;33.60;23.40
18024;DHT22;9137;50.960;3.118;2023-06-14T14:09:35;33.20;24.70
18024;DHT22;9137;50.960;3.118;2023-06-14T14:12:03;33.30;24.10
18024;DHT22;9137;50.960;3.118;2023-06-14T14:14:31;33.10;23.70
18024;DHT22;9137;50.960;3.118;2023-06-14T14:16:59;33.00;23.50
18024;DHT22;9137;50.960;3.118;2023-06-14T14:19:26;32.90;23.80
18024;DHT22;9137;50.960;3.118;2023-06-14T14:21:53;32.90;23.90
18024;DHT22;9137;50.960;3.118;2023-06-14T14:24:21;33.40;25.10
18024;DHT22;9137;50.960;3.118;2023-06-14T14:26:48;33.50;24.00
18024;DHT22;9137;50.960;3.118;2023-06-14T14:29:16;33.50;24.10
18024;DHT22;9137;50.960;3.118;2023-06-14T14:31:43;33.50;23.50
18024;DHT22;9137;50.960;3.118;2023-06-14T14:34:10;33.20;23.60
18024;DHT22;9137;50.960;3.118;2023-06-14T14:36:42;33.10;24.00
18024;DHT22;9137;50.960;3.118;2023-06-14T14:39:09;33.10;24.10
18024;DHT22;9137;50.960;3.118;2023-06-14T14:41:38;33.20;23.70
18024;DHT22;9137;50.960;3.118;2023-06-14T14:44:06;33.40;23.80
18024;DHT22;9137;50.960;3.118;2023-06-14T14:46:33;33.30;24.50
18024;DHT22;9137;50.960;3.118;2023-06-14T14:49:00;33.40;24.50
18024;DHT22;9137;50.960;3.118;2023-06-14T14:51:27;33.40;24.70
18024;DHT22;9137;50.960;3.118;2023-06-14T14:53:54;33.30;24.20
18024;DHT22;9137;50.960;3.118;2023-06-14T14:56:22;33.10;24.00
18024;DHT22;9137;50.960;3.118;2023-06-14T14:58:50;33.10;24.90
18024;DHT22;9137;50.960;3.118;2023-06-14T15:01:17;33.10;24.90
18024;DHT22;9137;50.960;3.118;2023-06-14T15:03:44;33.10;25.80
18024;DHT22;9137;50.960;3.118;2023-06-14T15:06:11;33.20;26.00
18024;DHT22;9137;50.960;3.118;2023-06-14T15:08:38;33.40;24.90
18024;DHT22;9137;50.960;3.118;2023-06-14T15:11:05;33.60;25.60
18024;DHT22;9137;50.960;3.118;2023-06-14T15:13:32;33.50;25.70
18024;DHT22;9137;50.960;3.118;2023-06-14T15:16:00;33.50;25.30
18024;DHT22;9137;50.960;3.118;2023-06-14T15:18:27;33.20;24.50
18024;DHT22;9137;50.960;3.118;2023-06-14T15:20:54;33.10;24.70
18024;DHT22;9137;50.960;3.118;2023-06-14T15:23:22;33.20;25.50
18024;DHT22;9137;50.960;3.118;2023-06-14T15:25:49;33.40;26.10
18024;DHT22;9137;50.960;3.118;2023-06-14T15:28:17;33.70;25.60
18024;DHT22;9137;50.960;3.118;2023-06-14T15:30:46;33.70;24.90
18024;DHT22;9137;50.960;3.118;2023-06-14T15:33:14;33.70;24.60
18024;DHT22;9137;50.960;3.118;2023-06-14T15:35:41;33.70;24.90
18024;DHT22;9137;50.960;3.118;2023-06-14T15:38:08;33.30;24.90
18024;DHT22;9137;50.960;3.118;2023-06-14T15:40:35;33.10;25.10
18024;DHT22;9137;50.960;3.118;2023-06-14T15:43:02;33.10;25.90
18024;DHT22;9137;50.960;3.118;2023-06-14T15:45:29;33.20;25.90
18024;DHT22;9137;50.960;3.118;2023-06-14T15:47:57;33.40;25.90
18024;DHT22;9137;50.960;3.118;2023-06-14T15:50:26;33.50;25.30
18024;DHT22;9137;50.960;3.118;2023-06-14T15:52:53;33.40;25.70
18024;DHT22;9137;50.960;3.118;2023-06-14T15:55:20;33.50;24.80
18024;DHT22;9137;50.960;3.118;2023-06-14T15:57:47;33.70;25.00
18024;DHT22;9137;50.960;3.118;2023-06-14T16:00:15;33.70;25.20
18024;DHT22;9137;50.960;3.118;2023-06-14T16:02:42;33.70;24.30
18024;DHT22;9137;50.960;3.118;2023-06-14T16:05:09;33.80;24.70